sensor_id;sensor_type;location;lat;lon;timestamp;P1;durP1;ratioP1;P2;durP2;ratioP2
31660;SDS011;18267;52.234;7.444;2022-09-17T00:00:33;5.75;;;1.10;;
31660;SDS011;18267;52.234;7.444;2022-09-17T00:02:59;8.35;;;0.98;;
31660;SDS011;18267;52.234;7.444;2022-09-17T00:05:27;12.38;;;1.25;;
31660;SDS011;18267;52.234;7.444;2022-09-17T00:07:52;6.85;;;0.98;;
31660;SDS011;18267;52.234;7.444;2022-09-17T00:10:18;11.30;;;1.30;;
31660;SDS011;18267;52.234;7.444;2022-09-17T00:12:45;12.15;;;1.38;;
31660;SDS011;18267;52.234;7.444;2022-09-17T00:15:11;10.27;;;1.30;;
31660;SDS011;18267;52.234;7.444;2022-09-17T00:17:37;4.20;;;0.80;;
31660;SDS011;18267;52.234;7.444;2022-09-17T00:20:03;5.65;;;0.70;;
31660;SDS011;18267;52.234;7.444;2022-09-17T00:22:32;15.45;;;1.35;;
31660;SDS011;18267;52.234;7.444;2022-09-17T00:24:58;12.63;;;0.98;;
31660;SDS011;18267;52.234;7.444;2022-09-17T00:27:23;7.80;;;1.08;;
31660;SDS011;18267;52.234;7.444;2022-09-17T00:29:49;12.15;;;1.20;;
31660;SDS011;18267;52.234;7.444;2022-09-17T00:32:14;7.90;;;1.10;;
31660;SDS011;18267;52.234;7.444;2022-09-17T00:34:41;7.35;;;0.98;;
31660;SDS011;18267;52.234;7.444;2022-09-17T00:37:07;19.30;;;1.77;;
31660;SDS011;18267;52.234;7.444;2022-09-17T00:39:33;11.63;;;1.23;;
31660;SDS011;18267;52.234;7.444;2022-09-17T00:41:58;11.00;;;1.25;;
31660;SDS011;18267;52.234;7.444;2022-09-17T00:44:44;11.27;;;1.35;;
31660;SDS011;18267;52.234;7.444;2022-09-17T00:50:03;15.05;;;1.38;;
31660;SDS011;18267;52.234;7.444;2022-09-17T00:52:40;8.02;;;0.93;;
31660;SDS011;18267;52.234;7.444;2022-09-17T00:55:15;8.77;;;1.33;;
31660;SDS011;18267;52.234;7.444;2022-09-17T00:57:54;16.15;;;1.38;;
31660;SDS011;18267;52.234;7.444;2022-09-17T01:00:22;11.82;;;1.63;;
31660;SDS011;18267;52.234;7.444;2022-09-17T01:02:49;3.60;;;0.82;;
31660;SDS011;18267;52.234;7.444;2022-09-17T01:05:17;8.65;;;1.02;;
31660;SDS011;18267;52.234;7.444;2022-09-17T01:08:19;5.32;;;0.95;;
31660;SDS011;18267;52.234;7.444;2022-09-17T01:13:55;15.80;;;1.90;;
31660;SDS011;18267;52.234;7.444;2022-09-17T01:19:13;21.88;;;1.35;;
31660;SDS011;18267;52.234;7.444;2022-09-17T01:30:17;15.45;;;1.05;;
31660;SDS011;18267;52.234;7.444;2022-09-17T01:33:03;6.65;;;0.98;;
31660;SDS011;18267;52.234;7.444;2022-09-17T01:35:44;8.52;;;1.13;;
31660;SDS011;18267;52.234;7.444;2022-09-17T01:38:39;12.82;;;1.55;;
31660;SDS011;18267;52.234;7.444;2022-09-17T01:43:56;4.32;;;0.80;;
31660;SDS011;18267;52.234;7.444;2022-09-17T01:46:27;17.02;;;1.52;;
31660;SDS011;18267;52.234;7.444;2022-09-17T01:48:57;17.52;;;1.20;;
31660;SDS011;18267;52.234;7.444;2022-09-17T01:51:26;11.27;;;1.17;;
31660;SDS011;18267;52.234;7.444;2022-09-17T01:54:00;7.72;;;1.17;;
31660;SDS011;18267;52.234;7.444;2022-09-17T01:56:39;13.93;;;0.98;;
31660;SDS011;18267;52.234;7.444;2022-09-17T01:59:15;16.30;;;1.08;;
31660;SDS011;18267;52.234;7.444;2022-09-17T02:01:49;9.00;;;1.38;;
31660;SDS011;18267;52.234;7.444;2022-09-17T02:04:22;11.85;;;1.15;;
31660;SDS011;18267;52.234;7.444;2022-09-17T02:06:52;13.50;;;0.93;;
31660;SDS011;18267;52.234;7.444;2022-09-17T02:09:26;11.05;;;1.20;;
31660;SDS011;18267;52.234;7.444;2022-09-17T02:11:58;11.18;;;1.17;;
31660;SDS011;18267;52.234;7.444;2022-09-17T02:14:30;15.23;;;1.75;;
31660;SDS011;18267;52.234;7.444;2022-09-17T02:17:09;6.82;;;1.10;;
31660;SDS011;18267;52.234;7.444;2022-09-17T02:19:40;9.63;;;1.33;;
31660;SDS011;18267;52.234;7.444;2022-09-17T02:27:36;23.92;;;1.70;;
31660;SDS011;18267;52.234;7.444;2022-09-17T02:30:12;14.77;;;1.25;;
31660;SDS011;18267;52.234;7.444;2022-09-17T02:32:38;7.15;;;1.17;;
31660;SDS011;18267;52.234;7.444;2022-09-17T02:35:04;10.20;;;1.27;;
31660;SDS011;18267;52.234;7.444;2022-09-17T02:37:33;15.75;;;1.55;;
31660;SDS011;18267;52.234;7.444;2022-09-17T02:40:02;12.20;;;1.45;;
31660;SDS011;18267;52.234;7.444;2022-09-17T02:45:43;14.43;;;1.45;;
31660;SDS011;18267;52.234;7.444;2022-09-17T02:51:31;8.52;;;1.17;;
31660;SDS011;18267;52.234;7.444;2022-09-17T02:54:15;12.55;;;1.63;;
31660;SDS011;18267;52.234;7.444;2022-09-17T02:59:46;26.27;;;2.55;;
31660;SDS011;18267;52.234;7.444;2022-09-17T03:02:31;15.32;;;1.58;;
31660;SDS011;18267;52.234;7.444;2022-09-17T03:05:07;12.15;;;1.05;;
31660;SDS011;18267;52.234;7.444;2022-09-17T03:07:35;18.23;;;1.27;;
31660;SDS011;18267;52.234;7.444;2022-09-17T03:10:01;10.30;;;1.33;;
31660;SDS011;18267;52.234;7.444;2022-09-17T03:12:26;13.70;;;2.05;;
31660;SDS011;18267;52.234;7.444;2022-09-17T03:14:52;10.85;;;1.38;;
31660;SDS011;18267;52.234;7.444;2022-09-17T03:17:18;12.63;;;1.48;;
31660;SDS011;18267;52.234;7.444;2022-09-17T03:19:43;10.57;;;1.25;;
31660;SDS011;18267;52.234;7.444;2022-09-17T03:22:09;16.85;;;1.20;;
31660;SDS011;18267;52.234;7.444;2022-09-17T03:24:35;9.57;;;1.00;;
31660;SDS011;18267;52.234;7.444;2022-09-17T03:27:00;10.50;;;0.95;;
31660;SDS011;18267;52.234;7.444;2022-09-17T03:29:26;11.98;;;1.50;;
31660;SDS011;18267;52.234;7.444;2022-09-17T03:31:51;14.55;;;1.20;;
31660;SDS011;18267;52.234;7.444;2022-09-17T03:34:17;11.43;;;1.70;;
31660;SDS011;18267;52.234;7.444;2022-09-17T03:36:43;8.43;;;1.25;;
31660;SDS011;18267;52.234;7.444;2022-09-17T03:39:09;10.30;;;1.25;;
31660;SDS011;18267;52.234;7.444;2022-09-17T03:41:34;9.15;;;1.30;;
31660;SDS011;18267;52.234;7.444;2022-09-17T03:44:00;8.02;;;1.67;;
31660;SDS011;18267;52.234;7.444;2022-09-17T03:46:26;9.73;;;1.55;;
31660;SDS011;18267;52.234;7.444;2022-09-17T03:48:51;7.05;;;1.02;;
31660;SDS011;18267;52.234;7.444;2022-09-17T03:51:17;9.35;;;1.00;;
31660;SDS011;18267;52.234;7.444;2022-09-17T03:53:42;9.80;;;1.02;;
31660;SDS011;18267;52.234;7.444;2022-09-17T03:56:08;9.32;;;0.88;;
31660;SDS011;18267;52.234;7.444;2022-09-17T03:58:34;15.00;;;1.33;;
31660;SDS011;18267;52.234;7.444;2022-09-17T04:01:00;12.18;;;1.17;;
31660;SDS011;18267;52.234;7.444;2022-09-17T04:03:27;12.45;;;1.17;;
31660;SDS011;18267;52.234;7.444;2022-09-17T04:05:53;14.30;;;1.20;;
31660;SDS011;18267;52.234;7.444;2022-09-17T04:08:19;6.90;;;0.82;;
31660;SDS011;18267;52.234;7.444;2022-09-17T04:10:45;7.68;;;1.52;;
31660;SDS011;18267;52.234;7.444;2022-09-17T04:13:11;24.25;;;1.52;;
31660;SDS011;18267;52.234;7.444;2022-09-17T04:15:38;11.52;;;1.55;;
31660;SDS011;18267;52.234;7.444;2022-09-17T04:18:05;11.73;;;1.60;;
31660;SDS011;18267;52.234;7.444;2022-09-17T04:20:30;19.13;;;1.52;;
31660;SDS011;18267;52.234;7.444;2022-09-17T04:22:56;10.07;;;1.25;;
31660;SDS011;18267;52.234;7.444;2022-09-17T04:25:22;7.57;;;1.02;;
31660;SDS011;18267;52.234;7.444;2022-09-17T04:27:47;10.40;;;1.40;;
31660;SDS011;18267;52.234;7.444;2022-09-17T04:30:13;10.10;;;1.00;;
31660;SDS011;18267;52.234;7.444;2022-09-17T04:32:39;9.98;;;0.90;;
31660;SDS011;18267;52.234;7.444;2022-09-17T04:35:05;7.47;;;0.90;;
31660;SDS011;18267;52.234;7.444;2022-09-17T04:37:31;8.30;;;1.38;;
31660;SDS011;18267;52.234;7.444;2022-09-17T04:39:56;5.80;;;1.30;;
31660;SDS011;18267;52.234;7.444;2022-09-17T04:42:23;13.88;;;1.20;;
31660;SDS011;18267;52.234;7.444;2022-09-17T04:44:48;6.93;;;1.13;;
31660;SDS011;18267;52.234;7.444;2022-09-17T04:47:14;17.23;;;1.23;;
31660;SDS011;18267;52.234;7.444;2022-09-17T04:49:40;14.70;;;1.60;;
31660;SDS011;18267;52.234;7.444;2022-09-17T04:52:05;10.00;;;1.60;;
31660;SDS011;18267;52.234;7.444;2022-09-17T04:54:31;13.98;;;1.23;;
31660;SDS011;18267;52.234;7.444;2022-09-17T04:56:57;9.75;;;1.23;;
31660;SDS011;18267;52.234;7.444;2022-09-17T04:59:23;11.43;;;1.27;;
31660;SDS011;18267;52.234;7.444;2022-09-17T05:01:49;13.55;;;1.83;;
31660;SDS011;18267;52.234;7.444;2022-09-17T05:04:14;6.30;;;0.80;;
31660;SDS011;18267;52.234;7.444;2022-09-17T05:06:45;3.97;;;0.80;;
31660;SDS011;18267;52.234;7.444;2022-09-17T05:09:11;13.77;;;1.60;;
31660;SDS011;18267;52.234;7.444;2022-09-17T05:11:36;5.20;;;0.88;;
31660;SDS011;18267;52.234;7.444;2022-09-17T05:14:02;5.78;;;0.88;;
31660;SDS011;18267;52.234;7.444;2022-09-17T05:16:28;7.15;;;0.98;;
31660;SDS011;18267;52.234;7.444;2022-09-17T05:18:53;11.68;;;0.90;;
31660;SDS011;18267;52.234;7.444;2022-09-17T05:21:19;7.63;;;0.95;;
31660;SDS011;18267;52.234;7.444;2022-09-17T05:23:45;8.43;;;1.30;;
31660;SDS011;18267;52.234;7.444;2022-09-17T05:26:11;9.80;;;0.93;;
31660;SDS011;18267;52.234;7.444;2022-09-17T05:28:37;9.75;;;0.95;;
31660;SDS011;18267;52.234;7.444;2022-09-17T05:31:03;4.78;;;0.70;;
31660;SDS011;18267;52.234;7.444;2022-09-17T05:33:28;6.57;;;0.82;;
31660;SDS011;18267;52.234;7.444;2022-09-17T05:35:54;6.15;;;1.25;;
31660;SDS011;18267;52.234;7.444;2022-09-17T05:38:19;12.77;;;0.90;;
31660;SDS011;18267;52.234;7.444;2022-09-17T05:40:45;8.25;;;0.77;;
31660;SDS011;18267;52.234;7.444;2022-09-17T05:43:11;8.68;;;0.90;;
31660;SDS011;18267;52.234;7.444;2022-09-17T05:45:36;6.32;;;0.82;;
31660;SDS011;18267;52.234;7.444;2022-09-17T05:48:03;8.07;;;1.08;;
31660;SDS011;18267;52.234;7.444;2022-09-17T05:50:30;6.65;;;0.73;;
31660;SDS011;18267;52.234;7.444;2022-09-17T05:52:56;2.42;;;0.57;;
31660;SDS011;18267;52.234;7.444;2022-09-17T05:55:27;7.70;;;1.33;;
31660;SDS011;18267;52.234;7.444;2022-09-17T05:57:52;7.43;;;0.90;;
31660;SDS011;18267;52.234;7.444;2022-09-17T06:00:18;10.50;;;0.80;;
31660;SDS011;18267;52.234;7.444;2022-09-17T06:02:43;7.07;;;0.88;;
31660;SDS011;18267;52.234;7.444;2022-09-17T06:05:09;5.50;;;0.88;;
31660;SDS011;18267;52.234;7.444;2022-09-17T06:07:35;12.10;;;1.08;;
31660;SDS011;18267;52.234;7.444;2022-09-17T06:10:02;5.72;;;0.98;;
31660;SDS011;18267;52.234;7.444;2022-09-17T06:12:30;8.40;;;0.93;;
31660;SDS011;18267;52.234;7.444;2022-09-17T06:14:55;7.60;;;0.80;;
31660;SDS011;18267;52.234;7.444;2022-09-17T06:17:21;9.15;;;1.05;;
31660;SDS011;18267;52.234;7.444;2022-09-17T06:19:47;10.25;;;1.10;;
31660;SDS011;18267;52.234;7.444;2022-09-17T06:22:12;8.05;;;0.65;;
31660;SDS011;18267;52.234;7.444;2022-09-17T06:24:38;11.23;;;1.02;;
31660;SDS011;18267;52.234;7.444;2022-09-17T06:27:04;4.28;;;0.80;;
31660;SDS011;18267;52.234;7.444;2022-09-17T06:29:30;6.45;;;1.00;;
31660;SDS011;18267;52.234;7.444;2022-09-17T06:31:55;9.65;;;0.90;;
31660;SDS011;18267;52.234;7.444;2022-09-17T06:34:21;7.15;;;0.73;;
31660;SDS011;18267;52.234;7.444;2022-09-17T06:36:47;14.63;;;1.52;;
31660;SDS011;18267;52.234;7.444;2022-09-17T06:39:13;9.75;;;1.13;;
31660;SDS011;18267;52.234;7.444;2022-09-17T06:41:42;11.80;;;0.77;;
31660;SDS011;18267;52.234;7.444;2022-09-17T06:44:08;12.18;;;1.10;;
31660;SDS011;18267;52.234;7.444;2022-09-17T06:46:34;12.90;;;1.08;;
31660;SDS011;18267;52.234;7.444;2022-09-17T06:49:00;6.32;;;0.52;;
31660;SDS011;18267;52.234;7.444;2022-09-17T06:51:25;10.50;;;0.80;;
31660;SDS011;18267;52.234;7.444;2022-09-17T06:53:51;8.90;;;0.82;;
31660;SDS011;18267;52.234;7.444;2022-09-17T06:56:16;9.55;;;1.20;;
31660;SDS011;18267;52.234;7.444;2022-09-17T06:58:42;5.80;;;0.70;;
31660;SDS011;18267;52.234;7.444;2022-09-17T07:01:09;7.05;;;0.70;;
31660;SDS011;18267;52.234;7.444;2022-09-17T07:03:36;7.63;;;0.90;;
31660;SDS011;18267;52.234;7.444;2022-09-17T07:06:02;5.43;;;0.73;;
31660;SDS011;18267;52.234;7.444;2022-09-17T07:08:30;3.28;;;0.75;;
31660;SDS011;18267;52.234;7.444;2022-09-17T07:10:58;5.10;;;0.63;;
31660;SDS011;18267;52.234;7.444;2022-09-17T07:13:23;6.13;;;0.52;;
31660;SDS011;18267;52.234;7.444;2022-09-17T07:15:59;7.50;;;1.02;;
31660;SDS011;18267;52.234;7.444;2022-09-17T07:18:26;5.78;;;0.60;;
31660;SDS011;18267;52.234;7.444;2022-09-17T07:20:55;8.13;;;0.80;;
31660;SDS011;18267;52.234;7.444;2022-09-17T07:23:23;12.63;;;1.30;;
31660;SDS011;18267;52.234;7.444;2022-09-17T07:25:56;5.40;;;0.77;;
31660;SDS011;18267;52.234;7.444;2022-09-17T07:28:23;6.20;;;0.75;;
31660;SDS011;18267;52.234;7.444;2022-09-17T07:30:50;10.60;;;1.25;;
31660;SDS011;18267;52.234;7.444;2022-09-17T07:33:16;9.10;;;0.60;;
31660;SDS011;18267;52.234;7.444;2022-09-17T07:35:54;8.70;;;1.17;;
31660;SDS011;18267;52.234;7.444;2022-09-17T07:38:21;8.07;;;1.00;;
31660;SDS011;18267;52.234;7.444;2022-09-17T07:41:21;3.00;;;0.68;;
31660;SDS011;18267;52.234;7.444;2022-09-17T07:43:40;6.60;;;0.85;;
31660;SDS011;18267;52.234;7.444;2022-09-17T07:46:07;8.60;;;0.65;;
31660;SDS011;18267;52.234;7.444;2022-09-17T07:48:39;5.72;;;1.00;;
31660;SDS011;18267;52.234;7.444;2022-09-17T07:51:04;6.68;;;0.80;;
31660;SDS011;18267;52.234;7.444;2022-09-17T07:53:30;10.88;;;0.98;;
31660;SDS011;18267;52.234;7.444;2022-09-17T07:55:57;5.90;;;0.70;;
31660;SDS011;18267;52.234;7.444;2022-09-17T07:58:31;3.97;;;1.23;;
31660;SDS011;18267;52.234;7.444;2022-09-17T08:03:27;14.13;;;1.05;;
31660;SDS011;18267;52.234;7.444;2022-09-17T08:05:53;10.77;;;1.20;;
31660;SDS011;18267;52.234;7.444;2022-09-17T08:08:18;8.45;;;0.77;;
31660;SDS011;18267;52.234;7.444;2022-09-17T08:10:44;6.70;;;0.68;;
31660;SDS011;18267;52.234;7.444;2022-09-17T08:13:09;6.55;;;0.80;;
31660;SDS011;18267;52.234;7.444;2022-09-17T08:15:35;7.63;;;0.77;;
31660;SDS011;18267;52.234;7.444;2022-09-17T08:18:00;7.93;;;0.80;;
31660;SDS011;18267;52.234;7.444;2022-09-17T08:20:26;9.38;;;0.77;;
31660;SDS011;18267;52.234;7.444;2022-09-17T08:22:58;4.10;;;0.70;;
31660;SDS011;18267;52.234;7.444;2022-09-17T08:25:25;6.68;;;0.57;;
31660;SDS011;18267;52.234;7.444;2022-09-17T08:27:54;11.05;;;0.60;;
31660;SDS011;18267;52.234;7.444;2022-09-17T08:30:20;7.88;;;0.93;;
31660;SDS011;18267;52.234;7.444;2022-09-17T08:32:46;4.10;;;0.50;;
31660;SDS011;18267;52.234;7.444;2022-09-17T08:35:12;3.88;;;0.60;;
31660;SDS011;18267;52.234;7.444;2022-09-17T08:37:37;9.15;;;0.60;;
31660;SDS011;18267;52.234;7.444;2022-09-17T08:40:03;4.15;;;0.43;;
31660;SDS011;18267;52.234;7.444;2022-09-17T08:42:36;11.68;;;0.73;;
31660;SDS011;18267;52.234;7.444;2022-09-17T08:45:10;3.30;;;0.60;;
31660;SDS011;18267;52.234;7.444;2022-09-17T08:47:42;5.32;;;0.50;;
31660;SDS011;18267;52.234;7.444;2022-09-17T08:50:17;11.55;;;0.93;;
31660;SDS011;18267;52.234;7.444;2022-09-17T09:00:55;3.90;;;0.55;;
31660;SDS011;18267;52.234;7.444;2022-09-17T09:06:25;4.47;;;0.70;;
31660;SDS011;18267;52.234;7.444;2022-09-17T09:08:58;3.20;;;0.57;;
31660;SDS011;18267;52.234;7.444;2022-09-17T09:11:53;5.93;;;0.47;;
31660;SDS011;18267;52.234;7.444;2022-09-17T09:14:30;2.65;;;0.70;;
31660;SDS011;18267;52.234;7.444;2022-09-17T09:17:02;2.55;;;0.50;;
31660;SDS011;18267;52.234;7.444;2022-09-17T09:19:37;7.93;;;0.50;;
31660;SDS011;18267;52.234;7.444;2022-09-17T09:33:15;4.78;;;0.60;;
31660;SDS011;18267;52.234;7.444;2022-09-17T09:35:43;2.40;;;0.50;;
31660;SDS011;18267;52.234;7.444;2022-09-17T09:41:02;4.78;;;0.55;;
31660;SDS011;18267;52.234;7.444;2022-09-17T09:46:29;1.23;;;0.40;;
31660;SDS011;18267;52.234;7.444;2022-09-17T09:52:03;1.33;;;0.20;;
31660;SDS011;18267;52.234;7.444;2022-09-17T10:00:21;4.67;;;0.37;;
31660;SDS011;18267;52.234;7.444;2022-09-17T10:02:54;5.30;;;0.38;;
31660;SDS011;18267;52.234;7.444;2022-09-17T10:05:53;7.45;;;0.43;;
31660;SDS011;18267;52.234;7.444;2022-09-17T10:08:20;4.70;;;0.30;;
31660;SDS011;18267;52.234;7.444;2022-09-17T10:10:56;4.85;;;0.40;;
31660;SDS011;18267;52.234;7.444;2022-09-17T10:13:45;6.47;;;0.50;;
31660;SDS011;18267;52.234;7.444;2022-09-17T10:16:32;3.15;;;0.20;;
31660;SDS011;18267;52.234;7.444;2022-09-17T10:21:30;2.22;;;0.30;;
31660;SDS011;18267;52.234;7.444;2022-09-17T10:24:01;1.20;;;0.20;;
31660;SDS011;18267;52.234;7.444;2022-09-17T10:26:29;2.92;;;0.38;;
31660;SDS011;18267;52.234;7.444;2022-09-17T10:28:59;2.75;;;0.30;;
31660;SDS011;18267;52.234;7.444;2022-09-17T10:31:27;3.00;;;0.25;;
31660;SDS011;18267;52.234;7.444;2022-09-17T10:34:17;1.35;;;0.20;;
31660;SDS011;18267;52.234;7.444;2022-09-17T10:36:53;1.95;;;0.32;;
31660;SDS011;18267;52.234;7.444;2022-09-17T10:39:31;1.05;;;0.28;;
31660;SDS011;18267;52.234;7.444;2022-09-17T10:41:59;0.90;;;0.20;;
31660;SDS011;18267;52.234;7.444;2022-09-17T10:44:36;2.67;;;0.45;;
31660;SDS011;18267;52.234;7.444;2022-09-17T11:05:59;4.80;;;0.30;;
31660;SDS011;18267;52.234;7.444;2022-09-17T11:08:49;5.90;;;0.40;;
31660;SDS011;18267;52.234;7.444;2022-09-17T11:16:47;6.50;;;0.40;;
31660;SDS011;18267;52.234;7.444;2022-09-17T11:27:43;1.17;;;0.17;;
31660;SDS011;18267;52.234;7.444;2022-09-17T11:30:18;1.50;;;0.20;;
31660;SDS011;18267;52.234;7.444;2022-09-17T11:35:24;6.45;;;0.30;;
31660;SDS011;18267;52.234;7.444;2022-09-17T11:38:04;3.35;;;0.47;;
31660;SDS011;18267;52.234;7.444;2022-09-17T11:43:25;3.88;;;0.50;;
31660;SDS011;18267;52.234;7.444;2022-09-17T11:45:55;3.25;;;0.63;;
31660;SDS011;18267;52.234;7.444;2022-09-17T11:51:01;0.93;;;0.28;;
31660;SDS011;18267;52.234;7.444;2022-09-17T11:56:24;6.07;;;0.47;;
31660;SDS011;18267;52.234;7.444;2022-09-17T12:01:37;1.85;;;0.32;;
31660;SDS011;18267;52.234;7.444;2022-09-17T12:10:44;0.60;;;0.30;;
31660;SDS011;18267;52.234;7.444;2022-09-17T12:12:56;4.20;;;0.40;;
31660;SDS011;18267;52.234;7.444;2022-09-17T12:15:42;2.28;;;0.13;;
31660;SDS011;18267;52.234;7.444;2022-09-17T12:18:24;0.00;;;0.00;;
31660;SDS011;18267;52.234;7.444;2022-09-17T12:20:57;2.78;;;0.20;;
31660;SDS011;18267;52.234;7.444;2022-09-17T12:23:34;1.13;;;0.35;;
31660;SDS011;18267;52.234;7.444;2022-09-17T12:26:07;1.67;;;0.10;;
31660;SDS011;18267;52.234;7.444;2022-09-17T12:34:47;1.65;;;0.57;;
31660;SDS011;18267;52.234;7.444;2022-09-17T12:37:41;6.28;;;0.50;;
31660;SDS011;18267;52.234;7.444;2022-09-17T12:48:53;3.92;;;0.55;;
31660;SDS011;18267;52.234;7.444;2022-09-17T12:57:38;3.97;;;0.60;;
31660;SDS011;18267;52.234;7.444;2022-09-17T13:15:21;3.90;;;0.60;;
31660;SDS011;18267;52.234;7.444;2022-09-17T13:20:58;4.40;;;0.50;;
31660;SDS011;18267;52.234;7.444;2022-09-17T13:23:40;7.15;;;1.00;;
31660;SDS011;18267;52.234;7.444;2022-09-17T13:26:07;2.28;;;0.88;;
31660;SDS011;18267;52.234;7.444;2022-09-17T13:28:35;6.13;;;0.50;;
31660;SDS011;18267;52.234;7.444;2022-09-17T13:31:01;2.70;;;0.60;;
31660;SDS011;18267;52.234;7.444;2022-09-17T13:42:07;8.63;;;0.40;;
31660;SDS011;18267;52.234;7.444;2022-09-17T13:44:42;4.20;;;0.57;;
31660;SDS011;18267;52.234;7.444;2022-09-17T13:47:27;3.47;;;0.55;;
31660;SDS011;18267;52.234;7.444;2022-09-17T13:52:56;5.40;;;0.50;;
31660;SDS011;18267;52.234;7.444;2022-09-17T13:55:41;3.00;;;0.47;;
31660;SDS011;18267;52.234;7.444;2022-09-17T13:58:09;5.68;;;0.60;;
31660;SDS011;18267;52.234;7.444;2022-09-17T14:00:50;3.95;;;0.35;;
31660;SDS011;18267;52.234;7.444;2022-09-17T14:04:04;4.40;;;0.90;;
31660;SDS011;18267;52.234;7.444;2022-09-17T14:19:16;16.05;;;0.75;;
31660;SDS011;18267;52.234;7.444;2022-09-17T14:24:36;9.60;;;1.52;;
31660;SDS011;18267;52.234;7.444;2022-09-17T14:30:06;5.53;;;0.57;;
31660;SDS011;18267;52.234;7.444;2022-09-17T14:33:01;15.57;;;0.90;;
31660;SDS011;18267;52.234;7.444;2022-09-17T14:35:39;15.98;;;0.90;;
31660;SDS011;18267;52.234;7.444;2022-09-17T14:38:15;10.00;;;0.70;;
31660;SDS011;18267;52.234;7.444;2022-09-17T14:41:03;9.27;;;0.63;;
31660;SDS011;18267;52.234;7.444;2022-09-17T14:46:29;8.07;;;1.25;;
31660;SDS011;18267;52.234;7.444;2022-09-17T14:51:47;11.45;;;0.50;;
31660;SDS011;18267;52.234;7.444;2022-09-17T15:04:56;7.50;;;1.02;;
31660;SDS011;18267;52.234;7.444;2022-09-17T15:07:23;9.32;;;1.63;;
31660;SDS011;18267;52.234;7.444;2022-09-17T15:09:49;12.05;;;1.20;;
31660;SDS011;18267;52.234;7.444;2022-09-17T15:12:19;5.35;;;0.95;;
31660;SDS011;18267;52.234;7.444;2022-09-17T15:14:49;7.18;;;1.70;;
31660;SDS011;18267;52.234;7.444;2022-09-17T15:17:17;4.25;;;0.57;;
31660;SDS011;18267;52.234;7.444;2022-09-17T15:19:50;11.88;;;1.08;;
31660;SDS011;18267;52.234;7.444;2022-09-17T15:28:17;9.43;;;1.05;;
31660;SDS011;18267;52.234;7.444;2022-09-17T15:34:09;6.68;;;0.70;;
31660;SDS011;18267;52.234;7.444;2022-09-17T15:36:36;12.80;;;1.25;;
31660;SDS011;18267;52.234;7.444;2022-09-17T15:39:06;11.50;;;1.15;;
31660;SDS011;18267;52.234;7.444;2022-09-17T15:41:55;5.45;;;0.73;;
31660;SDS011;18267;52.234;7.444;2022-09-17T15:44:22;2.00;;;0.30;;
31660;SDS011;18267;52.234;7.444;2022-09-17T15:46:50;4.85;;;0.65;;
31660;SDS011;18267;52.234;7.444;2022-09-17T15:49:29;0.55;;;0.13;;
31660;SDS011;18267;52.234;7.444;2022-09-17T15:54:52;4.95;;;0.50;;
31660;SDS011;18267;52.234;7.444;2022-09-17T15:57:18;7.43;;;0.60;;
31660;SDS011;18267;52.234;7.444;2022-09-17T15:59:46;4.00;;;0.60;;
31660;SDS011;18267;52.234;7.444;2022-09-17T16:02:26;4.03;;;0.50;;
31660;SDS011;18267;52.234;7.444;2022-09-17T16:05:40;4.60;;;0.70;;
31660;SDS011;18267;52.234;7.444;2022-09-17T16:07:42;3.03;;;0.25;;
31660;SDS011;18267;52.234;7.444;2022-09-17T16:10:10;6.78;;;0.60;;
31660;SDS011;18267;52.234;7.444;2022-09-17T16:12:40;2.28;;;0.45;;
31660;SDS011;18267;52.234;7.444;2022-09-17T16:15:09;7.45;;;0.80;;
31660;SDS011;18267;52.234;7.444;2022-09-17T16:17:42;7.80;;;0.93;;
31660;SDS011;18267;52.234;7.444;2022-09-17T16:22:43;5.35;;;0.63;;
31660;SDS011;18267;52.234;7.444;2022-09-17T16:25:12;5.75;;;0.88;;
31660;SDS011;18267;52.234;7.444;2022-09-17T16:27:57;6.85;;;0.60;;
31660;SDS011;18267;52.234;7.444;2022-09-17T16:30:26;7.15;;;0.90;;
31660;SDS011;18267;52.234;7.444;2022-09-17T16:32:52;6.45;;;0.55;;
31660;SDS011;18267;52.234;7.444;2022-09-17T16:35:19;4.60;;;0.80;;
31660;SDS011;18267;52.234;7.444;2022-09-17T16:37:50;4.50;;;0.40;;
31660;SDS011;18267;52.234;7.444;2022-09-17T16:40:17;2.65;;;0.75;;
31660;SDS011;18267;52.234;7.444;2022-09-17T16:42:44;3.35;;;0.52;;
31660;SDS011;18267;52.234;7.444;2022-09-17T16:45:10;3.83;;;0.45;;
31660;SDS011;18267;52.234;7.444;2022-09-17T16:47:37;0.38;;;0.10;;
31660;SDS011;18267;52.234;7.444;2022-09-17T16:50:05;4.90;;;0.30;;
31660;SDS011;18267;52.234;7.444;2022-09-17T16:52:35;1.80;;;0.28;;
31660;SDS011;18267;52.234;7.444;2022-09-17T16:55:01;2.22;;;0.43;;
31660;SDS011;18267;52.234;7.444;2022-09-17T16:57:29;2.53;;;0.52;;
31660;SDS011;18267;52.234;7.444;2022-09-17T16:59:55;1.23;;;0.25;;
31660;SDS011;18267;52.234;7.444;2022-09-17T17:02:22;5.22;;;0.60;;
31660;SDS011;18267;52.234;7.444;2022-09-17T17:04:48;2.40;;;0.65;;
31660;SDS011;18267;52.234;7.444;2022-09-17T17:07:13;1.98;;;0.25;;
31660;SDS011;18267;52.234;7.444;2022-09-17T17:09:39;12.25;;;0.57;;
31660;SDS011;18267;52.234;7.444;2022-09-17T17:12:05;9.82;;;0.40;;
31660;SDS011;18267;52.234;7.444;2022-09-17T17:14:31;1.73;;;0.40;;
31660;SDS011;18267;52.234;7.444;2022-09-17T17:16:59;2.95;;;0.40;;
31660;SDS011;18267;52.234;7.444;2022-09-17T17:19:24;2.30;;;0.40;;
31660;SDS011;18267;52.234;7.444;2022-09-17T17:21:51;7.93;;;0.95;;
31660;SDS011;18267;52.234;7.444;2022-09-17T17:24:17;1.75;;;0.10;;
31660;SDS011;18267;52.234;7.444;2022-09-17T17:26:43;1.88;;;0.30;;
31660;SDS011;18267;52.234;7.444;2022-09-17T17:29:10;3.50;;;0.32;;
31660;SDS011;18267;52.234;7.444;2022-09-17T17:31:36;2.33;;;0.50;;
31660;SDS011;18267;52.234;7.444;2022-09-17T17:34:02;8.93;;;0.50;;
31660;SDS011;18267;52.234;7.444;2022-09-17T17:36:27;4.28;;;0.45;;
31660;SDS011;18267;52.234;7.444;2022-09-17T17:38:56;1.30;;;0.50;;
31660;SDS011;18267;52.234;7.444;2022-09-17T17:41:22;3.60;;;0.38;;
31660;SDS011;18267;52.234;7.444;2022-09-17T17:43:53;2.92;;;0.50;;
31660;SDS011;18267;52.234;7.444;2022-09-17T17:46:19;7.50;;;0.50;;
31660;SDS011;18267;52.234;7.444;2022-09-17T17:48:47;5.40;;;0.35;;
31660;SDS011;18267;52.234;7.444;2022-09-17T17:51:14;3.35;;;0.45;;
31660;SDS011;18267;52.234;7.444;2022-09-17T17:53:42;8.75;;;0.93;;
31660;SDS011;18267;52.234;7.444;2022-09-17T17:56:09;4.22;;;0.47;;
31660;SDS011;18267;52.234;7.444;2022-09-17T17:58:35;2.08;;;0.47;;
31660;SDS011;18267;52.234;7.444;2022-09-17T18:01:11;5.20;;;0.68;;
31660;SDS011;18267;52.234;7.444;2022-09-17T18:03:38;2.83;;;0.45;;
31660;SDS011;18267;52.234;7.444;2022-09-17T18:06:04;5.75;;;0.45;;
31660;SDS011;18267;52.234;7.444;2022-09-17T18:08:31;6.40;;;0.30;;
31660;SDS011;18267;52.234;7.444;2022-09-17T18:10:58;2.70;;;0.30;;
31660;SDS011;18267;52.234;7.444;2022-09-17T18:13:27;7.20;;;0.70;;
31660;SDS011;18267;52.234;7.444;2022-09-17T18:15:53;4.40;;;0.60;;
31660;SDS011;18267;52.234;7.444;2022-09-17T18:18:24;6.85;;;0.63;;
31660;SDS011;18267;52.234;7.444;2022-09-17T18:20:58;4.43;;;0.57;;
31660;SDS011;18267;52.234;7.444;2022-09-17T18:23:24;8.20;;;0.55;;
31660;SDS011;18267;52.234;7.444;2022-09-17T18:25:53;6.35;;;0.60;;
31660;SDS011;18267;52.234;7.444;2022-09-17T18:28:20;6.70;;;0.50;;
31660;SDS011;18267;52.234;7.444;2022-09-17T18:30:46;5.07;;;0.75;;
31660;SDS011;18267;52.234;7.444;2022-09-17T18:33:15;7.80;;;0.77;;
31660;SDS011;18267;52.234;7.444;2022-09-17T18:36:00;9.32;;;0.45;;
31660;SDS011;18267;52.234;7.444;2022-09-17T18:38:28;5.25;;;0.80;;
31660;SDS011;18267;52.234;7.444;2022-09-17T18:40:54;9.65;;;0.60;;
31660;SDS011;18267;52.234;7.444;2022-09-17T18:43:19;8.45;;;0.80;;
31660;SDS011;18267;52.234;7.444;2022-09-17T18:45:54;4.15;;;0.85;;
31660;SDS011;18267;52.234;7.444;2022-09-17T18:48:21;7.03;;;0.65;;